Terminal Aerodrome Forecast
Issued by NWS

Home | Current Version | Previous Version | Text Only | Print | Product List | Glossary On
Versions: 1 2 3 4 5 6 7 8 9 10 11 12 13 14 15 16 17 18
627
FTUS41 KBTV 130537
TAFMPV
TAF
KMPV 130537Z 1306/1406 VRB03KT P6SM VCSH OVC080
     FM130900 29004KT P6SM VCSH OVC025
     FM131100 30006KT P6SM BKN025
     FM131500 31009KT P6SM BKN045=

USA.gov is the U.S. government's official web portal to all federal, state and local government web resources and services.